sensor_id;sensor_type;location;lat;lon;timestamp;P1;durP1;ratioP1;P2;durP2;ratioP2
61356;SDS011;47227;46.752;23.576;2023-04-29T00:02:19;11.80;;;6.60;;
61356;SDS011;47227;46.752;23.576;2023-04-29T00:04:46;7.30;;;5.80;;
61356;SDS011;47227;46.752;23.576;2023-04-29T00:07:13;9.90;;;6.90;;
61356;SDS011;47227;46.752;23.576;2023-04-29T00:09:41;8.80;;;6.50;;
61356;SDS011;47227;46.752;23.576;2023-04-29T00:12:07;9.50;;;6.60;;
61356;SDS011;47227;46.752;23.576;2023-04-29T00:14:35;7.90;;;6.20;;
61356;SDS011;47227;46.752;23.576;2023-04-29T00:17:02;9.50;;;6.00;;
61356;SDS011;47227;46.752;23.576;2023-04-29T00:19:29;10.10;;;6.10;;
61356;SDS011;47227;46.752;23.576;2023-04-29T00:21:56;8.60;;;6.00;;
61356;SDS011;47227;46.752;23.576;2023-04-29T00:24:24;14.90;;;6.00;;
61356;SDS011;47227;46.752;23.576;2023-04-29T00:26:51;8.90;;;5.60;;
61356;SDS011;47227;46.752;23.576;2023-04-29T00:29:37;9.00;;;5.50;;
61356;SDS011;47227;46.752;23.576;2023-04-29T00:32:04;8.20;;;5.50;;
61356;SDS011;47227;46.752;23.576;2023-04-29T00:34:30;10.70;;;5.80;;
61356;SDS011;47227;46.752;23.576;2023-04-29T00:36:57;9.20;;;5.80;;
61356;SDS011;47227;46.752;23.576;2023-04-29T00:39:23;8.90;;;5.30;;
61356;SDS011;47227;46.752;23.576;2023-04-29T00:41:50;7.60;;;5.90;;
61356;SDS011;47227;46.752;23.576;2023-04-29T00:44:18;9.00;;;5.80;;
61356;SDS011;47227;46.752;23.576;2023-04-29T00:46:44;13.10;;;6.40;;
61356;SDS011;47227;46.752;23.576;2023-04-29T00:49:11;7.50;;;5.30;;
61356;SDS011;47227;46.752;23.576;2023-04-29T00:51:41;7.10;;;5.00;;
61356;SDS011;47227;46.752;23.576;2023-04-29T00:54:08;6.90;;;5.30;;
61356;SDS011;47227;46.752;23.576;2023-04-29T00:56:36;9.80;;;5.60;;
61356;SDS011;47227;46.752;23.576;2023-04-29T00:59:06;8.50;;;5.70;;
61356;SDS011;47227;46.752;23.576;2023-04-29T01:01:35;6.20;;;5.10;;
61356;SDS011;47227;46.752;23.576;2023-04-29T01:04:03;9.60;;;5.20;;
61356;SDS011;47227;46.752;23.576;2023-04-29T01:06:42;9.60;;;5.40;;
61356;SDS011;47227;46.752;23.576;2023-04-29T01:09:28;7.90;;;5.40;;
61356;SDS011;47227;46.752;23.576;2023-04-29T01:20:25;5.80;;;4.90;;
61356;SDS011;47227;46.752;23.576;2023-04-29T01:22:52;8.30;;;5.40;;
61356;SDS011;47227;46.752;23.576;2023-04-29T01:25:19;8.60;;;5.40;;
61356;SDS011;47227;46.752;23.576;2023-04-29T01:28:15;8.10;;;5.80;;
61356;SDS011;47227;46.752;23.576;2023-04-29T01:30:55;10.50;;;5.80;;
61356;SDS011;47227;46.752;23.576;2023-04-29T01:39:19;10.60;;;6.50;;
61356;SDS011;47227;46.752;23.576;2023-04-29T01:42:14;8.90;;;5.90;;
61356;SDS011;47227;46.752;23.576;2023-04-29T01:44:55;11.70;;;5.80;;
61356;SDS011;47227;46.752;23.576;2023-04-29T01:47:26;8.10;;;5.50;;
61356;SDS011;47227;46.752;23.576;2023-04-29T01:49:54;9.60;;;5.90;;
61356;SDS011;47227;46.752;23.576;2023-04-29T01:52:21;8.10;;;5.30;;
61356;SDS011;47227;46.752;23.576;2023-04-29T01:54:53;9.50;;;6.00;;
61356;SDS011;47227;46.752;23.576;2023-04-29T01:57:20;10.60;;;5.80;;
61356;SDS011;47227;46.752;23.576;2023-04-29T01:59:56;7.50;;;5.40;;
61356;SDS011;47227;46.752;23.576;2023-04-29T02:02:38;8.80;;;5.70;;
61356;SDS011;47227;46.752;23.576;2023-04-29T02:07:47;7.00;;;5.20;;
61356;SDS011;47227;46.752;23.576;2023-04-29T02:10:13;8.50;;;5.70;;
61356;SDS011;47227;46.752;23.576;2023-04-29T02:12:41;7.10;;;5.50;;
61356;SDS011;47227;46.752;23.576;2023-04-29T02:15:08;6.50;;;5.80;;
61356;SDS011;47227;46.752;23.576;2023-04-29T02:17:34;7.90;;;6.20;;
61356;SDS011;47227;46.752;23.576;2023-04-29T02:20:01;6.90;;;5.50;;
61356;SDS011;47227;46.752;23.576;2023-04-29T02:22:28;9.20;;;6.00;;
61356;SDS011;47227;46.752;23.576;2023-04-29T02:24:54;9.70;;;5.70;;
61356;SDS011;47227;46.752;23.576;2023-04-29T02:27:21;7.70;;;5.80;;
61356;SDS011;47227;46.752;23.576;2023-04-29T02:29:48;12.10;;;7.10;;
61356;SDS011;47227;46.752;23.576;2023-04-29T02:32:16;8.00;;;6.00;;
61356;SDS011;47227;46.752;23.576;2023-04-29T02:34:45;10.00;;;6.10;;
61356;SDS011;47227;46.752;23.576;2023-04-29T02:37:12;7.80;;;5.80;;
61356;SDS011;47227;46.752;23.576;2023-04-29T02:39:38;7.70;;;5.90;;
61356;SDS011;47227;46.752;23.576;2023-04-29T02:42:06;10.50;;;5.90;;
61356;SDS011;47227;46.752;23.576;2023-04-29T02:44:35;8.50;;;5.40;;
61356;SDS011;47227;46.752;23.576;2023-04-29T02:47:01;5.20;;;4.70;;
61356;SDS011;47227;46.752;23.576;2023-04-29T02:49:28;11.00;;;5.80;;
61356;SDS011;47227;46.752;23.576;2023-04-29T02:51:55;8.10;;;5.70;;
61356;SDS011;47227;46.752;23.576;2023-04-29T02:54:22;8.00;;;5.80;;
61356;SDS011;47227;46.752;23.576;2023-04-29T02:56:48;7.00;;;5.90;;
61356;SDS011;47227;46.752;23.576;2023-04-29T02:59:15;7.40;;;5.70;;
61356;SDS011;47227;46.752;23.576;2023-04-29T03:01:42;9.20;;;7.00;;
61356;SDS011;47227;46.752;23.576;2023-04-29T03:04:08;14.20;;;7.20;;
61356;SDS011;47227;46.752;23.576;2023-04-29T03:06:36;12.50;;;6.90;;
61356;SDS011;47227;46.752;23.576;2023-04-29T03:09:02;9.20;;;6.50;;
61356;SDS011;47227;46.752;23.576;2023-04-29T03:11:29;10.90;;;6.50;;
61356;SDS011;47227;46.752;23.576;2023-04-29T03:13:56;9.40;;;5.90;;
61356;SDS011;47227;46.752;23.576;2023-04-29T03:16:23;19.30;;;6.20;;
61356;SDS011;47227;46.752;23.576;2023-04-29T03:18:50;12.20;;;5.90;;
61356;SDS011;47227;46.752;23.576;2023-04-29T03:21:17;7.90;;;6.60;;
61356;SDS011;47227;46.752;23.576;2023-04-29T03:23:43;15.20;;;7.10;;
61356;SDS011;47227;46.752;23.576;2023-04-29T03:26:16;15.00;;;7.50;;
61356;SDS011;47227;46.752;23.576;2023-04-29T03:28:43;10.30;;;6.60;;
61356;SDS011;47227;46.752;23.576;2023-04-29T03:31:10;13.00;;;8.50;;
61356;SDS011;47227;46.752;23.576;2023-04-29T03:33:40;14.10;;;7.80;;
61356;SDS011;47227;46.752;23.576;2023-04-29T03:36:06;13.50;;;8.50;;
61356;SDS011;47227;46.752;23.576;2023-04-29T03:38:37;13.60;;;8.80;;
61356;SDS011;47227;46.752;23.576;2023-04-29T03:41:04;15.30;;;8.30;;
61356;SDS011;47227;46.752;23.576;2023-04-29T03:43:31;18.20;;;9.70;;
61356;SDS011;47227;46.752;23.576;2023-04-29T03:45:57;16.40;;;9.70;;
61356;SDS011;47227;46.752;23.576;2023-04-29T03:48:24;19.10;;;10.50;;
61356;SDS011;47227;46.752;23.576;2023-04-29T03:50:51;16.70;;;10.00;;
61356;SDS011;47227;46.752;23.576;2023-04-29T03:53:18;18.20;;;11.50;;
61356;SDS011;47227;46.752;23.576;2023-04-29T03:55:46;17.60;;;12.50;;
61356;SDS011;47227;46.752;23.576;2023-04-29T03:58:14;22.60;;;15.10;;
61356;SDS011;47227;46.752;23.576;2023-04-29T04:00:41;12.50;;;9.50;;
61356;SDS011;47227;46.752;23.576;2023-04-29T04:03:10;14.10;;;9.70;;
61356;SDS011;47227;46.752;23.576;2023-04-29T04:05:37;13.70;;;9.80;;
61356;SDS011;47227;46.752;23.576;2023-04-29T04:08:07;16.50;;;10.60;;
61356;SDS011;47227;46.752;23.576;2023-04-29T04:10:47;15.60;;;11.20;;
61356;SDS011;47227;46.752;23.576;2023-04-29T04:13:24;19.00;;;11.30;;
61356;SDS011;47227;46.752;23.576;2023-04-29T04:15:50;17.40;;;11.20;;
61356;SDS011;47227;46.752;23.576;2023-04-29T04:18:18;12.90;;;9.20;;
61356;SDS011;47227;46.752;23.576;2023-04-29T04:20:45;14.70;;;10.40;;
61356;SDS011;47227;46.752;23.576;2023-04-29T04:23:13;18.20;;;11.60;;
61356;SDS011;47227;46.752;23.576;2023-04-29T04:25:47;17.60;;;13.20;;
61356;SDS011;47227;46.752;23.576;2023-04-29T04:28:29;13.70;;;10.50;;
61356;SDS011;47227;46.752;23.576;2023-04-29T04:30:59;16.60;;;10.70;;
61356;SDS011;47227;46.752;23.576;2023-04-29T04:33:26;17.80;;;10.90;;
61356;SDS011;47227;46.752;23.576;2023-04-29T04:35:53;16.20;;;11.00;;
61356;SDS011;47227;46.752;23.576;2023-04-29T04:38:20;17.90;;;11.30;;
61356;SDS011;47227;46.752;23.576;2023-04-29T04:40:48;17.70;;;11.70;;
61356;SDS011;47227;46.752;23.576;2023-04-29T04:43:29;22.10;;;12.40;;
61356;SDS011;47227;46.752;23.576;2023-04-29T04:45:56;23.30;;;12.10;;
61356;SDS011;47227;46.752;23.576;2023-04-29T04:48:25;17.80;;;11.40;;
61356;SDS011;47227;46.752;23.576;2023-04-29T04:50:52;20.30;;;11.30;;
61356;SDS011;47227;46.752;23.576;2023-04-29T04:53:18;21.90;;;12.40;;
61356;SDS011;47227;46.752;23.576;2023-04-29T04:55:50;21.30;;;12.90;;
61356;SDS011;47227;46.752;23.576;2023-04-29T04:58:17;21.40;;;12.70;;
61356;SDS011;47227;46.752;23.576;2023-04-29T05:00:44;20.10;;;12.20;;
61356;SDS011;47227;46.752;23.576;2023-04-29T05:03:11;20.00;;;12.70;;
61356;SDS011;47227;46.752;23.576;2023-04-29T05:05:37;22.40;;;12.80;;
61356;SDS011;47227;46.752;23.576;2023-04-29T05:08:04;17.20;;;13.00;;
61356;SDS011;47227;46.752;23.576;2023-04-29T05:10:36;19.40;;;12.60;;
61356;SDS011;47227;46.752;23.576;2023-04-29T05:13:03;28.30;;;14.60;;
61356;SDS011;47227;46.752;23.576;2023-04-29T05:15:30;26.10;;;15.80;;
61356;SDS011;47227;46.752;23.576;2023-04-29T05:17:58;32.10;;;16.80;;
61356;SDS011;47227;46.752;23.576;2023-04-29T05:20:25;24.30;;;15.60;;
61356;SDS011;47227;46.752;23.576;2023-04-29T05:22:53;28.20;;;16.50;;
61356;SDS011;47227;46.752;23.576;2023-04-29T05:25:20;20.40;;;14.80;;
61356;SDS011;47227;46.752;23.576;2023-04-29T05:27:46;22.70;;;14.50;;
61356;SDS011;47227;46.752;23.576;2023-04-29T05:30:15;34.20;;;16.70;;
61356;SDS011;47227;46.752;23.576;2023-04-29T05:32:43;25.90;;;16.40;;
61356;SDS011;47227;46.752;23.576;2023-04-29T05:35:13;21.40;;;14.80;;
61356;SDS011;47227;46.752;23.576;2023-04-29T05:37:40;27.20;;;14.80;;
61356;SDS011;47227;46.752;23.576;2023-04-29T05:40:17;23.20;;;14.30;;
61356;SDS011;47227;46.752;23.576;2023-04-29T05:42:44;25.30;;;12.60;;
61356;SDS011;47227;46.752;23.576;2023-04-29T05:45:12;21.00;;;13.40;;
61356;SDS011;47227;46.752;23.576;2023-04-29T05:47:39;21.90;;;13.60;;
61356;SDS011;47227;46.752;23.576;2023-04-29T05:50:05;21.50;;;12.20;;
61356;SDS011;47227;46.752;23.576;2023-04-29T05:52:33;23.70;;;13.80;;
61356;SDS011;47227;46.752;23.576;2023-04-29T05:54:59;25.00;;;13.60;;
61356;SDS011;47227;46.752;23.576;2023-04-29T05:57:26;19.70;;;13.90;;
61356;SDS011;47227;46.752;23.576;2023-04-29T05:59:53;23.60;;;14.00;;
61356;SDS011;47227;46.752;23.576;2023-04-29T06:02:23;19.40;;;13.30;;
61356;SDS011;47227;46.752;23.576;2023-04-29T06:04:51;24.50;;;14.10;;
61356;SDS011;47227;46.752;23.576;2023-04-29T06:07:34;26.20;;;13.90;;
61356;SDS011;47227;46.752;23.576;2023-04-29T06:10:15;27.10;;;12.90;;
61356;SDS011;47227;46.752;23.576;2023-04-29T06:12:43;23.60;;;13.50;;
61356;SDS011;47227;46.752;23.576;2023-04-29T06:15:11;18.10;;;13.60;;
61356;SDS011;47227;46.752;23.576;2023-04-29T06:17:38;24.70;;;13.00;;
61356;SDS011;47227;46.752;23.576;2023-04-29T06:20:06;22.80;;;12.80;;
61356;SDS011;47227;46.752;23.576;2023-04-29T06:22:34;20.50;;;13.20;;
61356;SDS011;47227;46.752;23.576;2023-04-29T06:25:01;23.90;;;13.40;;
61356;SDS011;47227;46.752;23.576;2023-04-29T06:27:41;21.60;;;14.70;;
61356;SDS011;47227;46.752;23.576;2023-04-29T06:30:08;23.90;;;14.00;;
61356;SDS011;47227;46.752;23.576;2023-04-29T06:32:35;31.30;;;14.40;;
61356;SDS011;47227;46.752;23.576;2023-04-29T06:35:03;23.80;;;14.80;;
61356;SDS011;47227;46.752;23.576;2023-04-29T06:37:40;24.50;;;14.90;;
61356;SDS011;47227;46.752;23.576;2023-04-29T06:40:27;26.10;;;16.00;;
61356;SDS011;47227;46.752;23.576;2023-04-29T06:43:07;27.60;;;16.40;;
61356;SDS011;47227;46.752;23.576;2023-04-29T06:45:38;25.70;;;15.50;;
61356;SDS011;47227;46.752;23.576;2023-04-29T06:48:15;24.30;;;14.70;;
61356;SDS011;47227;46.752;23.576;2023-04-29T06:50:48;29.10;;;15.90;;
61356;SDS011;47227;46.752;23.576;2023-04-29T06:53:17;31.10;;;15.30;;
61356;SDS011;47227;46.752;23.576;2023-04-29T06:55:44;27.10;;;15.60;;
61356;SDS011;47227;46.752;23.576;2023-04-29T06:58:14;25.60;;;16.00;;
61356;SDS011;47227;46.752;23.576;2023-04-29T07:00:45;26.60;;;15.50;;
61356;SDS011;47227;46.752;23.576;2023-04-29T07:03:13;21.70;;;14.40;;
61356;SDS011;47227;46.752;23.576;2023-04-29T07:05:42;26.60;;;15.00;;
61356;SDS011;47227;46.752;23.576;2023-04-29T07:08:11;20.60;;;14.90;;
61356;SDS011;47227;46.752;23.576;2023-04-29T07:10:39;27.90;;;14.60;;
61356;SDS011;47227;46.752;23.576;2023-04-29T07:13:06;22.50;;;14.20;;
61356;SDS011;47227;46.752;23.576;2023-04-29T07:15:33;18.70;;;12.50;;
61356;SDS011;47227;46.752;23.576;2023-04-29T07:18:02;25.70;;;14.10;;
61356;SDS011;47227;46.752;23.576;2023-04-29T07:20:30;22.50;;;12.70;;
61356;SDS011;47227;46.752;23.576;2023-04-29T07:22:56;19.00;;;13.00;;
61356;SDS011;47227;46.752;23.576;2023-04-29T07:25:25;19.40;;;12.80;;
61356;SDS011;47227;46.752;23.576;2023-04-29T07:27:54;22.80;;;13.70;;
61356;SDS011;47227;46.752;23.576;2023-04-29T07:30:23;19.10;;;12.90;;
61356;SDS011;47227;46.752;23.576;2023-04-29T07:32:50;16.70;;;12.50;;
61356;SDS011;47227;46.752;23.576;2023-04-29T07:35:17;19.00;;;12.20;;
61356;SDS011;47227;46.752;23.576;2023-04-29T07:37:44;16.40;;;11.50;;
61356;SDS011;47227;46.752;23.576;2023-04-29T07:40:11;17.00;;;11.10;;
61356;SDS011;47227;46.752;23.576;2023-04-29T07:42:38;18.20;;;13.20;;
61356;SDS011;47227;46.752;23.576;2023-04-29T07:45:05;19.70;;;9.50;;
61356;SDS011;47227;46.752;23.576;2023-04-29T07:47:32;16.20;;;9.20;;
61356;SDS011;47227;46.752;23.576;2023-04-29T07:49:59;15.50;;;9.60;;
61356;SDS011;47227;46.752;23.576;2023-04-29T07:52:26;14.80;;;9.10;;
61356;SDS011;47227;46.752;23.576;2023-04-29T07:54:53;13.10;;;8.50;;
61356;SDS011;47227;46.752;23.576;2023-04-29T07:57:21;15.00;;;9.30;;
61356;SDS011;47227;46.752;23.576;2023-04-29T07:59:51;13.80;;;8.80;;
61356;SDS011;47227;46.752;23.576;2023-04-29T08:02:19;13.10;;;7.90;;
61356;SDS011;47227;46.752;23.576;2023-04-29T08:05:04;9.30;;;7.60;;
61356;SDS011;47227;46.752;23.576;2023-04-29T08:07:31;15.30;;;7.80;;
61356;SDS011;47227;46.752;23.576;2023-04-29T08:09:59;13.10;;;7.80;;
61356;SDS011;47227;46.752;23.576;2023-04-29T08:12:25;13.10;;;8.00;;
61356;SDS011;47227;46.752;23.576;2023-04-29T08:14:52;11.50;;;7.10;;
61356;SDS011;47227;46.752;23.576;2023-04-29T08:17:20;14.20;;;7.00;;
61356;SDS011;47227;46.752;23.576;2023-04-29T08:19:47;10.20;;;5.10;;
61356;SDS011;47227;46.752;23.576;2023-04-29T08:22:13;4.40;;;3.50;;
61356;SDS011;47227;46.752;23.576;2023-04-29T08:24:40;6.30;;;3.10;;
61356;SDS011;47227;46.752;23.576;2023-04-29T08:27:07;4.70;;;2.90;;
61356;SDS011;47227;46.752;23.576;2023-04-29T08:29:34;6.50;;;2.60;;
61356;SDS011;47227;46.752;23.576;2023-04-29T08:32:01;6.90;;;2.60;;
61356;SDS011;47227;46.752;23.576;2023-04-29T08:34:28;5.80;;;3.00;;
61356;SDS011;47227;46.752;23.576;2023-04-29T08:36:56;11.40;;;3.20;;
61356;SDS011;47227;46.752;23.576;2023-04-29T08:39:22;5.00;;;3.10;;
61356;SDS011;47227;46.752;23.576;2023-04-29T08:41:49;5.50;;;3.20;;
61356;SDS011;47227;46.752;23.576;2023-04-29T08:44:17;7.10;;;3.20;;
61356;SDS011;47227;46.752;23.576;2023-04-29T08:46:44;4.70;;;2.80;;
61356;SDS011;47227;46.752;23.576;2023-04-29T08:49:11;6.70;;;3.10;;
61356;SDS011;47227;46.752;23.576;2023-04-29T08:51:38;6.50;;;2.70;;
61356;SDS011;47227;46.752;23.576;2023-04-29T08:54:05;4.60;;;3.10;;
61356;SDS011;47227;46.752;23.576;2023-04-29T08:56:34;6.90;;;3.10;;
61356;SDS011;47227;46.752;23.576;2023-04-29T08:59:02;10.60;;;3.30;;
61356;SDS011;47227;46.752;23.576;2023-04-29T09:01:30;7.80;;;3.30;;
61356;SDS011;47227;46.752;23.576;2023-04-29T09:06:45;4.40;;;2.30;;
61356;SDS011;47227;46.752;23.576;2023-04-29T09:09:13;7.70;;;2.40;;
61356;SDS011;47227;46.752;23.576;2023-04-29T09:11:41;3.00;;;2.50;;
61356;SDS011;47227;46.752;23.576;2023-04-29T09:14:07;5.10;;;2.40;;
61356;SDS011;47227;46.752;23.576;2023-04-29T09:16:34;3.00;;;2.40;;
61356;SDS011;47227;46.752;23.576;2023-04-29T09:19:04;4.40;;;2.40;;
61356;SDS011;47227;46.752;23.576;2023-04-29T09:21:32;4.70;;;2.60;;
61356;SDS011;47227;46.752;23.576;2023-04-29T09:23:59;5.20;;;2.30;;
61356;SDS011;47227;46.752;23.576;2023-04-29T09:26:34;9.40;;;3.50;;
61356;SDS011;47227;46.752;23.576;2023-04-29T09:29:07;4.10;;;2.30;;
61356;SDS011;47227;46.752;23.576;2023-04-29T09:31:36;5.40;;;2.40;;
61356;SDS011;47227;46.752;23.576;2023-04-29T09:34:04;5.60;;;2.30;;
61356;SDS011;47227;46.752;23.576;2023-04-29T09:39:12;6.10;;;2.30;;
61356;SDS011;47227;46.752;23.576;2023-04-29T09:44:26;3.50;;;1.90;;
61356;SDS011;47227;46.752;23.576;2023-04-29T09:47:00;5.10;;;2.20;;
61356;SDS011;47227;46.752;23.576;2023-04-29T09:49:36;4.90;;;2.30;;
61356;SDS011;47227;46.752;23.576;2023-04-29T09:52:06;3.70;;;2.10;;
61356;SDS011;47227;46.752;23.576;2023-04-29T09:54:36;4.00;;;2.20;;
61356;SDS011;47227;46.752;23.576;2023-04-29T09:57:04;4.70;;;2.50;;
61356;SDS011;47227;46.752;23.576;2023-04-29T09:59:35;3.00;;;2.20;;
61356;SDS011;47227;46.752;23.576;2023-04-29T10:02:05;6.80;;;2.50;;
61356;SDS011;47227;46.752;23.576;2023-04-29T10:04:44;2.50;;;1.70;;
61356;SDS011;47227;46.752;23.576;2023-04-29T10:07:15;7.50;;;2.60;;
61356;SDS011;47227;46.752;23.576;2023-04-29T10:09:44;7.10;;;1.90;;
61356;SDS011;47227;46.752;23.576;2023-04-29T10:12:16;3.10;;;1.90;;
61356;SDS011;47227;46.752;23.576;2023-04-29T10:14:49;3.70;;;2.10;;
61356;SDS011;47227;46.752;23.576;2023-04-29T10:17:23;4.40;;;2.10;;
61356;SDS011;47227;46.752;23.576;2023-04-29T10:20:03;6.70;;;2.60;;
61356;SDS011;47227;46.752;23.576;2023-04-29T10:22:32;3.20;;;2.00;;
61356;SDS011;47227;46.752;23.576;2023-04-29T10:25:14;6.40;;;2.60;;
61356;SDS011;47227;46.752;23.576;2023-04-29T10:27:42;4.10;;;2.20;;
61356;SDS011;47227;46.752;23.576;2023-04-29T10:30:11;7.80;;;2.20;;
61356;SDS011;47227;46.752;23.576;2023-04-29T10:32:39;6.40;;;2.60;;
61356;SDS011;47227;46.752;23.576;2023-04-29T10:35:18;4.20;;;2.20;;
61356;SDS011;47227;46.752;23.576;2023-04-29T10:37:47;9.20;;;3.00;;
61356;SDS011;47227;46.752;23.576;2023-04-29T10:40:21;3.30;;;2.20;;
61356;SDS011;47227;46.752;23.576;2023-04-29T10:42:53;5.90;;;2.10;;
61356;SDS011;47227;46.752;23.576;2023-04-29T10:45:21;2.70;;;2.00;;
61356;SDS011;47227;46.752;23.576;2023-04-29T10:50:38;5.80;;;2.10;;
61356;SDS011;47227;46.752;23.576;2023-04-29T10:53:25;2.70;;;2.20;;
61356;SDS011;47227;46.752;23.576;2023-04-29T10:55:55;2.70;;;1.90;;
61356;SDS011;47227;46.752;23.576;2023-04-29T11:01:09;4.00;;;2.50;;
61356;SDS011;47227;46.752;23.576;2023-04-29T11:03:54;11.30;;;2.90;;
61356;SDS011;47227;46.752;23.576;2023-04-29T11:06:24;9.60;;;2.90;;
61356;SDS011;47227;46.752;23.576;2023-04-29T11:09:14;7.80;;;2.60;;
61356;SDS011;47227;46.752;23.576;2023-04-29T11:11:47;40.60;;;6.20;;
61356;SDS011;47227;46.752;23.576;2023-04-29T11:14:24;11.80;;;3.00;;
61356;SDS011;47227;46.752;23.576;2023-04-29T11:16:56;3.80;;;2.40;;
61356;SDS011;47227;46.752;23.576;2023-04-29T11:19:29;4.80;;;2.30;;
61356;SDS011;47227;46.752;23.576;2023-04-29T11:24:53;8.80;;;2.80;;
61356;SDS011;47227;46.752;23.576;2023-04-29T11:27:24;4.20;;;2.40;;
61356;SDS011;47227;46.752;23.576;2023-04-29T11:29:53;7.20;;;2.80;;
61356;SDS011;47227;46.752;23.576;2023-04-29T11:32:24;5.40;;;2.30;;
61356;SDS011;47227;46.752;23.576;2023-04-29T11:35:06;4.70;;;2.40;;
61356;SDS011;47227;46.752;23.576;2023-04-29T11:37:35;4.80;;;2.30;;
61356;SDS011;47227;46.752;23.576;2023-04-29T11:40:03;3.90;;;2.30;;
61356;SDS011;47227;46.752;23.576;2023-04-29T11:42:35;3.70;;;2.20;;
61356;SDS011;47227;46.752;23.576;2023-04-29T11:45:10;5.60;;;2.20;;
61356;SDS011;47227;46.752;23.576;2023-04-29T11:47:40;5.10;;;2.40;;
61356;SDS011;47227;46.752;23.576;2023-04-29T11:50:11;9.30;;;3.10;;
61356;SDS011;47227;46.752;23.576;2023-04-29T11:52:38;4.10;;;2.50;;
61356;SDS011;47227;46.752;23.576;2023-04-29T11:55:08;4.70;;;2.60;;
61356;SDS011;47227;46.752;23.576;2023-04-29T11:57:37;6.30;;;2.80;;
61356;SDS011;47227;46.752;23.576;2023-04-29T12:00:07;6.70;;;2.60;;
61356;SDS011;47227;46.752;23.576;2023-04-29T12:02:37;4.70;;;2.20;;
61356;SDS011;47227;46.752;23.576;2023-04-29T12:05:06;8.40;;;2.70;;
61356;SDS011;47227;46.752;23.576;2023-04-29T12:07:34;6.80;;;2.70;;
61356;SDS011;47227;46.752;23.576;2023-04-29T12:10:02;6.70;;;2.20;;
61356;SDS011;47227;46.752;23.576;2023-04-29T12:12:28;4.70;;;2.10;;
61356;SDS011;47227;46.752;23.576;2023-04-29T12:15:00;6.00;;;2.60;;
61356;SDS011;47227;46.752;23.576;2023-04-29T12:17:28;6.60;;;2.50;;
61356;SDS011;47227;46.752;23.576;2023-04-29T12:19:55;3.80;;;2.10;;
61356;SDS011;47227;46.752;23.576;2023-04-29T12:22:29;3.40;;;2.40;;
61356;SDS011;47227;46.752;23.576;2023-04-29T12:24:57;5.50;;;2.20;;
61356;SDS011;47227;46.752;23.576;2023-04-29T12:27:24;10.30;;;3.30;;
61356;SDS011;47227;46.752;23.576;2023-04-29T12:29:52;6.60;;;2.80;;
61356;SDS011;47227;46.752;23.576;2023-04-29T12:32:22;9.20;;;3.00;;
61356;SDS011;47227;46.752;23.576;2023-04-29T12:34:52;7.10;;;2.40;;
61356;SDS011;47227;46.752;23.576;2023-04-29T12:37:20;5.80;;;2.70;;
61356;SDS011;47227;46.752;23.576;2023-04-29T12:39:48;4.10;;;2.70;;
61356;SDS011;47227;46.752;23.576;2023-04-29T12:42:15;3.70;;;2.80;;
61356;SDS011;47227;46.752;23.576;2023-04-29T12:44:44;4.50;;;2.60;;
61356;SDS011;47227;46.752;23.576;2023-04-29T12:47:13;6.60;;;2.80;;
61356;SDS011;47227;46.752;23.576;2023-04-29T12:49:41;5.00;;;3.00;;
61356;SDS011;47227;46.752;23.576;2023-04-29T12:52:09;5.40;;;3.30;;
61356;SDS011;47227;46.752;23.576;2023-04-29T12:54:37;6.90;;;3.00;;
61356;SDS011;47227;46.752;23.576;2023-04-29T12:57:06;10.10;;;3.70;;
61356;SDS011;47227;46.752;23.576;2023-04-29T12:59:34;8.10;;;3.20;;
61356;SDS011;47227;46.752;23.576;2023-04-29T13:02:01;5.00;;;3.00;;
61356;SDS011;47227;46.752;23.576;2023-04-29T13:04:27;3.40;;;2.80;;
61356;SDS011;47227;46.752;23.576;2023-04-29T13:06:54;11.20;;;2.90;;
61356;SDS011;47227;46.752;23.576;2023-04-29T13:09:25;8.30;;;3.10;;
61356;SDS011;47227;46.752;23.576;2023-04-29T13:11:52;6.20;;;2.90;;
61356;SDS011;47227;46.752;23.576;2023-04-29T13:14:19;10.20;;;3.30;;
61356;SDS011;47227;46.752;23.576;2023-04-29T13:16:53;4.60;;;2.90;;
61356;SDS011;47227;46.752;23.576;2023-04-29T13:19:19;5.80;;;3.10;;
61356;SDS011;47227;46.752;23.576;2023-04-29T13:22:05;5.80;;;2.80;;
61356;SDS011;47227;46.752;23.576;2023-04-29T13:24:31;9.80;;;3.00;;
61356;SDS011;47227;46.752;23.576;2023-04-29T13:27:00;6.00;;;3.00;;
61356;SDS011;47227;46.752;23.576;2023-04-29T13:29:28;4.70;;;2.50;;
61356;SDS011;47227;46.752;23.576;2023-04-29T13:31:54;3.60;;;2.70;;
61356;SDS011;47227;46.752;23.576;2023-04-29T13:34:21;6.80;;;2.90;;
61356;SDS011;47227;46.752;23.576;2023-04-29T13:36:48;4.30;;;2.90;;
61356;SDS011;47227;46.752;23.576;2023-04-29T13:39:14;2.70;;;2.20;;
61356;SDS011;47227;46.752;23.576;2023-04-29T13:41:41;4.30;;;2.50;;
61356;SDS011;47227;46.752;23.576;2023-04-29T13:44:12;4.40;;;2.50;;
61356;SDS011;47227;46.752;23.576;2023-04-29T13:49:25;4.80;;;2.60;;
61356;SDS011;47227;46.752;23.576;2023-04-29T13:52:12;5.60;;;3.00;;
61356;SDS011;47227;46.752;23.576;2023-04-29T13:54:58;3.50;;;2.80;;
61356;SDS011;47227;46.752;23.576;2023-04-29T13:57:45;5.70;;;3.00;;
61356;SDS011;47227;46.752;23.576;2023-04-29T14:00:15;4.70;;;3.00;;
61356;SDS011;47227;46.752;23.576;2023-04-29T14:02:45;7.70;;;3.40;;
61356;SDS011;47227;46.752;23.576;2023-04-29T14:05:24;5.20;;;3.40;;
61356;SDS011;47227;46.752;23.576;2023-04-29T14:07:51;8.10;;;3.10;;
61356;SDS011;47227;46.752;23.576;2023-04-29T14:10:18;5.40;;;3.00;;
61356;SDS011;47227;46.752;23.576;2023-04-29T14:12:44;7.00;;;2.70;;
61356;SDS011;47227;46.752;23.576;2023-04-29T14:15:11;4.50;;;2.50;;
61356;SDS011;47227;46.752;23.576;2023-04-29T14:17:37;7.70;;;2.90;;
61356;SDS011;47227;46.752;23.576;2023-04-29T14:20:04;6.30;;;2.80;;
61356;SDS011;47227;46.752;23.576;2023-04-29T14:22:31;5.10;;;2.80;;
61356;SDS011;47227;46.752;23.576;2023-04-29T14:24:58;8.40;;;2.60;;
61356;SDS011;47227;46.752;23.576;2023-04-29T14:27:24;4.30;;;2.60;;
61356;SDS011;47227;46.752;23.576;2023-04-29T14:30:58;4.30;;;2.90;;
61356;SDS011;47227;46.752;23.576;2023-04-29T14:34:33;5.20;;;2.40;;
61356;SDS011;47227;46.752;23.576;2023-04-29T14:38:06;5.90;;;2.60;;
61356;SDS011;47227;46.752;23.576;2023-04-29T14:41:31;5.20;;;2.70;;
61356;SDS011;47227;46.752;23.576;2023-04-29T14:45:05;4.20;;;2.80;;
61356;SDS011;47227;46.752;23.576;2023-04-29T14:48:31;9.70;;;3.30;;
61356;SDS011;47227;46.752;23.576;2023-04-29T14:51:37;4.30;;;3.00;;
61356;SDS011;47227;46.752;23.576;2023-04-29T14:54:04;4.00;;;2.60;;
61356;SDS011;47227;46.752;23.576;2023-04-29T14:56:30;9.10;;;3.10;;
61356;SDS011;47227;46.752;23.576;2023-04-29T14:58:57;6.20;;;3.10;;
61356;SDS011;47227;46.752;23.576;2023-04-29T15:01:23;5.40;;;3.10;;
61356;SDS011;47227;46.752;23.576;2023-04-29T15:03:51;4.70;;;2.90;;
61356;SDS011;47227;46.752;23.576;2023-04-29T15:06:17;5.30;;;3.20;;
61356;SDS011;47227;46.752;23.576;2023-04-29T15:08:44;6.70;;;3.20;;
61356;SDS011;47227;46.752;23.576;2023-04-29T15:11:10;7.70;;;3.30;;
61356;SDS011;47227;46.752;23.576;2023-04-29T15:13:37;3.90;;;2.90;;
61356;SDS011;47227;46.752;23.576;2023-04-29T15:16:04;5.80;;;3.30;;
61356;SDS011;47227;46.752;23.576;2023-04-29T15:18:33;5.50;;;3.20;;
61356;SDS011;47227;46.752;23.576;2023-04-29T15:20:59;7.40;;;3.20;;
61356;SDS011;47227;46.752;23.576;2023-04-29T15:23:26;3.70;;;3.00;;